createdAt,value
2017-09-25T00:01:46.711Z,97.25
2017-09-25T00:04:14.533Z,97.22
2017-09-25T00:06:42.411Z,97.21
2017-09-25T00:09:10.247Z,97.19
2017-09-25T00:11:38.127Z,97.14
2017-09-25T00:14:05.956Z,97.11
2017-09-25T00:16:33.845Z,97.08
2017-09-25T00:19:01.656Z,97.05
2017-09-25T00:21:29.551Z,97.02
2017-09-25T00:23:57.272Z,97.02
2017-09-25T00:26:25.169Z,97.05
2017-09-25T00:28:52.972Z,97.05
2017-09-25T00:31:20.825Z,97.03
2017-09-25T00:33:48.658Z,97.02
2017-09-25T00:36:16.597Z,97.02
2017-09-25T00:38:44.445Z,96.99
2017-09-25T00:41:12.374Z,96.98
2017-09-25T00:43:40.199Z,96.97
2017-09-25T00:46:08.075Z,96.95
2017-09-25T00:48:35.949Z,96.93
2017-09-25T00:51:03.847Z,96.94
2017-09-25T00:56:33.817Z,96.97
2017-09-25T00:59:01.710Z,96.98
2017-09-25T01:01:41.428Z,96.98
2017-09-25T01:04:20.969Z,96.93
2017-09-25T01:06:48.831Z,96.91
2017-09-25T01:09:16.704Z,96.88
2017-09-25T01:11:44.621Z,96.93
2017-09-25T01:14:12.485Z,96.98
2017-09-25T01:16:40.349Z,97.04
2017-09-25T01:19:08.191Z,97.15
2017-09-25T01:21:36.070Z,97.26
2017-09-25T01:24:03.905Z,97.36
2017-09-25T01:26:31.772Z,97.42
2017-09-25T01:28:59.639Z,97.43
2017-09-25T01:31:27.464Z,97.44
2017-09-25T01:33:55.360Z,97.42
2017-09-25T01:36:23.170Z,97.40
2017-09-25T01:38:51.034Z,97.42
2017-09-25T01:41:18.949Z,97.42
2017-09-25T01:43:46.818Z,97.47
2017-09-25T01:46:14.647Z,97.55
2017-09-25T01:48:42.513Z,97.62
2017-09-25T01:51:10.370Z,97.65
2017-09-25T01:53:38.245Z,97.68
2017-09-25T01:56:06.095Z,97.69
2017-09-25T01:58:33.952Z,97.69
2017-09-25T02:01:02.531Z,97.68
2017-09-25T02:03:30.431Z,97.65
2017-09-25T02:05:58.303Z,97.63
2017-09-25T02:08:26.175Z,97.60
2017-09-25T02:10:54.035Z,97.58
2017-09-25T02:13:21.952Z,97.61
2017-09-25T02:15:49.767Z,97.62
2017-09-25T02:18:17.642Z,97.60
2017-09-25T02:20:45.468Z,97.61
2017-09-25T02:23:13.350Z,97.67
2017-09-25T02:25:41.179Z,97.71
2017-09-25T02:28:09.018Z,97.70
2017-09-25T02:30:36.756Z,97.65
2017-09-25T02:33:04.687Z,97.66
2017-09-25T02:35:32.558Z,97.64
2017-09-25T02:38:00.493Z,97.66
2017-09-25T02:40:28.243Z,97.72
2017-09-25T02:42:56.057Z,97.79
2017-09-25T02:45:23.877Z,97.86
2017-09-25T02:47:51.744Z,97.92
2017-09-25T02:50:19.556Z,97.96
2017-09-25T02:52:47.433Z,97.95
2017-09-25T02:55:15.254Z,97.84
2017-09-25T02:57:43.107Z,97.77
2017-09-25T03:00:10.953Z,97.71
2017-09-25T03:02:38.806Z,97.71
2017-09-25T03:05:06.643Z,97.69
2017-09-25T03:07:34.499Z,97.75
2017-09-25T03:10:02.333Z,97.82
2017-09-25T03:12:30.263Z,97.87
2017-09-25T03:14:58.104Z,97.85
2017-09-25T03:17:25.962Z,97.84
2017-09-25T03:19:53.844Z,97.81
2017-09-25T03:22:21.650Z,97.68
2017-09-25T03:24:49.533Z,97.67
2017-09-25T03:27:17.298Z,97.83
2017-09-25T03:29:45.180Z,97.88
2017-09-25T03:32:13.035Z,97.88
2017-09-25T03:34:40.897Z,97.88
2017-09-25T03:37:08.736Z,97.93
2017-09-25T03:39:36.597Z,97.88
2017-09-25T03:42:04.668Z,97.68
2017-09-25T03:44:32.543Z,97.57
2017-09-25T03:47:00.351Z,97.50
2017-09-25T03:49:28.211Z,97.49
2017-09-25T03:51:56.039Z,97.46
2017-09-25T03:54:23.906Z,97.36
2017-09-25T03:56:51.725Z,97.29
2017-09-25T03:59:19.600Z,97.22
2017-09-25T04:01:47.422Z,97.18
2017-09-25T04:04:15.279Z,97.20
2017-09-25T04:06:43.119Z,97.16
2017-09-25T04:09:11.009Z,97.12
2017-09-25T04:11:38.851Z,97.25
2017-09-25T04:14:06.741Z,97.31
2017-09-25T04:16:34.573Z,97.32
2017-09-25T04:19:02.451Z,97.32
2017-09-25T04:21:30.289Z,97.19
2017-09-25T04:23:58.086Z,97.17
2017-09-25T04:26:25.931Z,97.10
2017-09-25T04:28:53.814Z,96.96
2017-09-25T04:31:21.630Z,96.80
2017-09-25T04:33:49.499Z,96.75
2017-09-25T04:36:17.362Z,96.85
2017-09-25T04:38:45.256Z,96.88
2017-09-25T04:41:13.134Z,96.89
2017-09-25T04:43:41.039Z,96.92
2017-09-25T04:46:08.858Z,96.98
2017-09-25T04:48:36.756Z,97.00
2017-09-25T04:51:04.591Z,96.99
2017-09-25T04:53:32.519Z,96.87
2017-09-25T04:56:00.348Z,96.75
2017-09-25T04:58:28.244Z,96.63
2017-09-25T05:00:56.072Z,96.50
2017-09-25T05:03:23.921Z,96.52
2017-09-25T05:05:51.807Z,96.60
2017-09-25T05:08:19.615Z,96.58
2017-09-25T05:10:47.487Z,96.47
2017-09-25T05:13:15.295Z,96.41
2017-09-25T05:15:43.161Z,96.44
2017-09-25T05:18:11.016Z,96.56
2017-09-25T05:20:38.922Z,96.58
2017-09-25T05:23:06.749Z,96.49
2017-09-25T05:25:34.627Z,96.43
2017-09-25T05:28:02.471Z,96.40
2017-09-25T05:30:30.365Z,96.44
2017-09-25T05:32:58.194Z,96.73
2017-09-25T05:35:26.106Z,96.97
2017-09-25T05:37:53.927Z,97.20
2017-09-25T05:40:21.795Z,97.29
2017-09-25T05:42:49.650Z,97.32
2017-09-25T05:45:17.433Z,97.32
2017-09-25T05:47:45.253Z,97.37
2017-09-25T05:50:13.164Z,97.43
2017-09-25T05:52:41.016Z,97.45
2017-09-25T05:55:08.902Z,97.47
2017-09-25T05:57:36.735Z,97.51
2017-09-25T06:00:04.659Z,97.56
2017-09-25T06:02:32.513Z,97.65
2017-09-25T06:05:00.474Z,97.68
2017-09-25T06:07:28.306Z,97.73
2017-09-25T06:09:56.135Z,97.78
2017-09-25T06:12:23.848Z,97.79
2017-09-25T06:14:51.686Z,97.81
2017-09-25T06:17:19.441Z,97.87
2017-09-25T06:19:47.271Z,97.88
2017-09-25T06:22:15.025Z,97.90
2017-09-25T06:24:42.801Z,97.94
2017-09-25T06:27:10.562Z,97.97
2017-09-25T06:29:38.427Z,98.01
2017-09-25T06:32:06.166Z,98.02
2017-09-25T06:34:33.933Z,97.99
2017-09-25T06:37:01.687Z,97.96
2017-09-25T06:39:29.465Z,97.89
2017-09-25T06:41:57.218Z,97.84
2017-09-25T06:44:24.952Z,97.83
2017-09-25T06:46:52.750Z,97.80
2017-09-25T06:49:20.495Z,97.71
2017-09-25T06:51:48.276Z,97.56
2017-09-25T06:54:16.021Z,97.38
2017-09-25T06:56:43.817Z,97.12
2017-09-25T06:59:11.580Z,96.85
2017-09-25T07:01:39.364Z,96.53
2017-09-25T07:04:07.084Z,96.29
2017-09-25T07:06:34.861Z,95.70
2017-09-25T07:09:02.595Z,95.33
2017-09-25T07:11:30.363Z,95.16
2017-09-25T07:13:58.111Z,95.04
2017-09-25T07:16:25.926Z,94.70
2017-09-25T07:18:53.702Z,94.06
2017-09-25T07:21:21.508Z,93.77
2017-09-25T07:23:49.286Z,92.86
2017-09-25T07:26:17.130Z,92.57
2017-09-25T07:28:44.891Z,92.22
2017-09-25T07:31:12.698Z,92.10
2017-09-25T07:33:40.485Z,91.98
2017-09-25T07:36:08.267Z,91.89
2017-09-25T07:38:35.988Z,91.68
2017-09-25T07:41:03.784Z,91.41
2017-09-25T07:43:31.515Z,91.08
2017-09-25T07:45:59.315Z,90.72
2017-09-25T07:48:27.100Z,90.55
2017-09-25T07:50:54.919Z,90.45
2017-09-25T07:53:22.712Z,90.69
2017-09-25T07:55:50.483Z,91.11
2017-09-25T07:58:18.215Z,91.67
2017-09-25T08:00:46.035Z,92.23
2017-09-25T08:03:13.810Z,92.59
2017-09-25T08:05:41.622Z,92.67
2017-09-25T08:08:09.379Z,92.94
2017-09-25T08:10:37.176Z,93.11
2017-09-25T08:13:04.943Z,93.13
2017-09-25T08:15:32.724Z,92.96
2017-09-25T08:18:00.451Z,92.40
2017-09-25T08:23:19.938Z,90.46
2017-09-25T08:25:47.744Z,89.40
2017-09-25T08:28:15.500Z,88.90
2017-09-25T08:30:43.291Z,88.37
2017-09-25T08:33:11.036Z,87.99
2017-09-25T08:38:16.648Z,87.18
2017-09-25T08:40:44.427Z,86.29
2017-09-25T08:43:12.170Z,85.97
2017-09-25T08:45:39.973Z,85.57
2017-09-25T08:48:13.301Z,84.76
2017-09-25T08:50:41.098Z,84.01
2017-09-25T08:53:08.839Z,82.74
2017-09-25T08:55:36.686Z,82.20
2017-09-25T08:58:04.500Z,80.86
2017-09-25T09:00:32.256Z,80.25
2017-09-25T09:03:04.200Z,78.15
2017-09-25T09:05:32.204Z,77.31
2017-09-25T09:08:00.236Z,77.87
2017-09-25T09:10:28.005Z,77.89
2017-09-25T09:12:55.801Z,78.90
2017-09-25T09:15:23.656Z,78.34
2017-09-25T09:17:51.502Z,79.29
2017-09-25T09:20:19.347Z,79.19
2017-09-25T09:22:47.146Z,78.56
2017-09-25T09:25:14.893Z,76.63
2017-09-25T09:27:42.691Z,75.87
2017-09-25T09:30:10.533Z,76.33
2017-09-25T09:32:38.417Z,75.39
2017-09-25T09:35:06.189Z,76.75
2017-09-25T09:37:34.007Z,77.15
2017-09-25T09:40:01.733Z,76.88
2017-09-25T09:42:29.644Z,76.31
2017-09-25T09:44:57.406Z,76.60
2017-09-25T09:47:25.191Z,76.49
2017-09-25T09:49:52.939Z,77.14
2017-09-25T09:52:20.766Z,77.04
2017-09-25T09:54:48.489Z,76.99
2017-09-25T09:57:16.848Z,76.83
2017-09-25T09:59:47.662Z,76.35
2017-09-25T10:02:15.506Z,76.56
2017-09-25T10:04:43.903Z,76.43
2017-09-25T10:07:11.805Z,77.63
2017-09-25T10:09:42.337Z,75.16
2017-09-25T10:12:10.542Z,75.14
2017-09-25T10:14:39.218Z,74.34
2017-09-25T10:17:07.130Z,74.46
2017-09-25T10:19:36.132Z,75.00
2017-09-25T10:22:05.810Z,75.54
2017-09-25T10:24:35.401Z,75.42
2017-09-25T10:27:04.721Z,75.51
2017-09-25T10:29:35.211Z,74.21
2017-09-25T10:32:05.901Z,72.87
2017-09-25T10:34:35.336Z,72.32
2017-09-25T10:37:04.234Z,72.22
2017-09-25T10:39:33.258Z,71.67
2017-09-25T10:42:02.220Z,71.65
2017-09-25T10:44:31.448Z,70.58
2017-09-25T10:47:00.789Z,69.42
2017-09-25T10:49:29.483Z,69.68
2017-09-25T10:51:59.838Z,70.38
2017-09-25T10:54:29.441Z,69.48
2017-09-25T10:57:01.543Z,69.24
2017-09-25T10:59:30.646Z,66.87
2017-09-25T11:02:00.158Z,67.30
2017-09-25T11:04:30.868Z,68.48
2017-09-25T11:06:58.773Z,68.37
2017-09-25T11:09:29.458Z,69.38
2017-09-25T11:11:59.462Z,70.80
2017-09-25T11:14:30.890Z,69.35
2017-09-25T11:17:02.882Z,68.60
2017-09-25T11:19:32.208Z,69.05
2017-09-25T11:22:00.960Z,66.68
2017-09-25T11:24:30.787Z,67.76
2017-09-25T11:27:01.922Z,68.63
2017-09-25T11:29:30.375Z,70.26
2017-09-25T11:32:00.467Z,70.96
2017-09-25T11:34:30.431Z,71.89
2017-09-25T11:36:58.931Z,70.85
2017-09-25T11:39:33.363Z,70.61
2017-09-25T11:42:01.659Z,69.34
2017-09-25T11:44:32.503Z,68.19
2017-09-25T11:47:02.540Z,69.16
2017-09-25T11:49:31.450Z,69.31
2017-09-25T11:52:00.366Z,70.17
2017-09-25T11:54:29.902Z,70.96
2017-09-25T11:56:59.009Z,70.51
2017-09-25T11:59:26.899Z,70.98
2017-09-25T12:01:56.406Z,71.31
2017-09-25T12:04:26.413Z,72.84
2017-09-25T12:06:55.584Z,73.39
2017-09-25T12:09:25.657Z,73.24
2017-09-25T12:11:54.513Z,74.30
2017-09-25T12:14:23.313Z,76.30
2017-09-25T12:16:52.434Z,76.42
2017-09-25T12:19:21.856Z,79.13
2017-09-25T12:21:54.623Z,80.67
2017-09-25T12:24:23.564Z,83.50
2017-09-25T12:26:53.101Z,86.89
2017-09-25T12:29:23.791Z,88.19
2017-09-25T12:31:54.123Z,89.55
2017-09-25T12:34:22.049Z,89.91
2017-09-25T12:36:52.273Z,88.50
2017-09-25T12:39:21.986Z,89.96
2017-09-25T12:41:51.466Z,89.57
2017-09-25T12:44:20.172Z,90.33
2017-09-25T12:46:49.678Z,90.48
2017-09-25T12:49:21.242Z,89.93
2017-09-25T12:51:55.620Z,89.91
2017-09-25T12:54:40.356Z,90.10
2017-09-25T12:59:51.029Z,86.64
2017-09-25T13:02:20.743Z,84.82
2017-09-25T13:04:48.938Z,84.49
2017-09-25T13:07:17.460Z,84.36
2017-09-25T13:09:45.668Z,84.70
2017-09-25T13:12:16.104Z,85.77
2017-09-25T13:14:47.685Z,86.79
2017-09-25T13:17:15.568Z,86.63
2017-09-25T13:19:48.996Z,86.04
2017-09-25T13:22:17.675Z,85.24
2017-09-25T13:24:46.689Z,84.91
2017-09-25T13:27:15.319Z,85.50
2017-09-25T13:29:48.484Z,83.98
2017-09-25T13:32:21.936Z,84.60
2017-09-25T13:34:50.324Z,85.83
2017-09-25T13:37:20.063Z,84.96
2017-09-25T13:39:48.794Z,85.05
2017-09-25T13:42:19.623Z,85.28
2017-09-25T13:47:26.238Z,85.00
2017-09-25T13:49:55.083Z,85.33
2017-09-25T13:52:23.876Z,82.92
2017-09-25T13:54:55.388Z,82.54
2017-09-25T13:57:24.340Z,80.98
2017-09-25T14:02:27.145Z,78.27
2017-09-25T14:04:56.879Z,78.65
2017-09-25T14:07:26.788Z,78.47
2017-09-25T14:09:55.318Z,78.07
2017-09-25T14:12:24.613Z,77.96
2017-09-25T14:14:54.470Z,78.61
2017-09-25T14:20:01.894Z,78.57
2017-09-25T14:22:32.247Z,77.80
2017-09-25T14:30:54.560Z,79.00
2017-09-25T14:39:12.992Z,79.39
2017-09-25T14:47:40.830Z,79.61
2017-09-25T14:50:25.701Z,80.24
2017-09-25T15:01:51.765Z,80.79
2017-09-25T15:04:34.462Z,81.19
2017-09-25T15:07:22.635Z,80.82
2017-09-25T15:15:33.095Z,81.49
2017-09-25T15:37:25.937Z,82.88
2017-09-25T15:42:55.213Z,83.32
2017-09-25T15:56:25.506Z,83.56
2017-09-25T15:58:56.020Z,83.73
2017-09-25T16:01:24.247Z,83.99
2017-09-25T16:03:54.627Z,83.79
2017-09-25T16:06:27.003Z,84.10
2017-09-25T16:08:56.574Z,84.46
2017-09-25T16:11:25.639Z,84.36
2017-09-25T16:13:53.832Z,84.99
2017-09-25T16:16:23.704Z,84.85
2017-09-25T16:18:52.158Z,84.99
2017-09-25T16:21:23.552Z,84.79
2017-09-25T16:23:58.412Z,85.18
2017-09-25T16:26:27.154Z,85.38
2017-09-25T16:28:56.114Z,85.70
2017-09-25T16:31:26.626Z,86.37
2017-09-25T16:34:04.219Z,87.00
2017-09-25T16:36:40.573Z,87.80
2017-09-25T16:39:23.610Z,88.47
2017-09-25T16:41:53.770Z,88.49
2017-09-25T16:44:31.221Z,89.07
2017-09-25T16:49:43.262Z,89.22
2017-09-25T16:52:17.324Z,89.35
2017-09-25T17:00:22.434Z,89.49
2017-09-25T17:02:50.903Z,89.44
2017-09-25T17:05:19.779Z,89.37
2017-09-25T17:07:49.267Z,88.99
2017-09-25T17:10:18.234Z,89.55
2017-09-25T17:13:00.657Z,89.80
2017-09-25T17:15:29.507Z,90.36
2017-09-25T17:18:01.237Z,91.01
2017-09-25T17:20:29.412Z,91.26
2017-09-25T17:22:59.544Z,91.58
2017-09-25T17:25:30.236Z,91.91
2017-09-25T17:28:00.738Z,92.00
2017-09-25T17:30:28.763Z,92.16
2017-09-25T17:33:00.061Z,92.15
2017-09-25T17:35:30.503Z,91.97
2017-09-25T17:38:00.802Z,92.03
2017-09-25T17:40:30.621Z,92.05
2017-09-25T17:43:05.316Z,92.08
2017-09-25T17:45:33.562Z,92.19
2017-09-25T17:48:03.618Z,92.22
2017-09-25T17:50:35.745Z,92.22
2017-09-25T17:53:03.929Z,92.21
2017-09-25T17:55:31.696Z,92.23
2017-09-25T17:57:59.518Z,92.21
2017-09-25T18:00:27.318Z,92.21
2017-09-25T18:02:58.350Z,92.30
2017-09-25T18:05:26.196Z,92.17
2017-09-25T18:07:54.051Z,92.19
2017-09-25T18:10:21.834Z,92.33
2017-09-25T18:12:49.644Z,92.57
2017-09-25T18:15:17.565Z,92.60
2017-09-25T18:17:47.776Z,92.59
2017-09-25T18:20:15.663Z,92.60
2017-09-25T18:22:43.459Z,92.57
2017-09-25T18:25:11.208Z,92.50
2017-09-25T18:27:39.031Z,92.45
2017-09-25T18:30:06.837Z,92.42
2017-09-25T18:32:34.608Z,92.40
2017-09-25T18:35:02.440Z,92.29
2017-09-25T18:37:30.331Z,92.30
2017-09-25T18:39:58.205Z,92.61
2017-09-25T18:42:26.126Z,92.75
2017-09-25T18:44:53.962Z,92.80
2017-09-25T18:47:21.841Z,92.96
2017-09-25T18:49:49.671Z,93.08
2017-09-25T18:52:17.563Z,93.11
2017-09-25T18:54:45.425Z,93.12
2017-09-25T18:57:13.364Z,93.07
2017-09-25T18:59:41.208Z,93.10
2017-09-25T19:02:09.043Z,93.06
2017-09-25T19:04:36.963Z,93.10
2017-09-25T19:07:04.724Z,92.99
2017-09-25T19:09:32.651Z,92.73
2017-09-25T19:12:00.478Z,92.46
2017-09-25T19:14:28.335Z,92.57
2017-09-25T19:16:56.151Z,92.29
2017-09-25T19:19:24.074Z,92.43
2017-09-25T19:21:51.913Z,92.42
2017-09-25T19:24:20.062Z,92.48
2017-09-25T19:26:47.898Z,92.65
2017-09-25T19:29:15.774Z,92.69
2017-09-25T19:31:43.645Z,92.76
2017-09-25T19:34:11.544Z,92.96
2017-09-25T19:36:39.423Z,92.98
2017-09-25T19:39:07.250Z,93.11
2017-09-25T19:41:35.146Z,93.02
2017-09-25T19:44:03.065Z,93.03
2017-09-25T19:46:30.989Z,92.98
2017-09-25T19:49:10.713Z,93.03
2017-09-25T19:51:38.623Z,93.05
2017-09-25T19:54:08.510Z,93.17
2017-09-25T19:59:38.732Z,93.27
2017-09-25T20:02:06.640Z,93.37
2017-09-25T20:04:34.529Z,93.47
2017-09-25T20:07:12.087Z,93.42
2017-09-25T20:09:40.011Z,93.55
2017-09-25T20:12:07.908Z,93.57
2017-09-25T20:14:38.817Z,93.61
2017-09-25T20:17:17.292Z,93.51
2017-09-25T20:19:45.311Z,93.46
2017-09-25T20:22:13.169Z,93.56
2017-09-25T20:24:41.051Z,93.45
2017-09-25T20:27:08.917Z,93.48
2017-09-25T20:29:36.823Z,93.56
2017-09-25T20:32:04.653Z,93.42
2017-09-25T20:34:32.552Z,93.37
2017-09-25T20:37:00.515Z,93.51
2017-09-25T20:39:28.504Z,93.57
2017-09-25T20:41:58.759Z,93.59
2017-09-25T20:44:27.980Z,93.57
2017-09-25T20:46:55.826Z,93.58
2017-09-25T20:49:23.718Z,93.55
2017-09-25T20:51:51.569Z,93.65
2017-09-25T20:54:19.475Z,93.65
2017-09-25T20:56:47.352Z,93.66
2017-09-25T20:59:15.243Z,93.71
2017-09-25T21:01:43.073Z,93.85
2017-09-25T21:04:10.856Z,93.93
2017-09-25T21:06:38.695Z,94.11
2017-09-25T21:09:06.581Z,94.41
2017-09-25T21:11:34.431Z,94.65
2017-09-25T21:14:02.393Z,94.78
2017-09-25T21:16:30.250Z,94.86
2017-09-25T21:18:58.139Z,95.03
2017-09-25T21:21:25.933Z,95.14
2017-09-25T21:23:53.872Z,95.19
2017-09-25T21:26:22.595Z,95.32
2017-09-25T21:28:50.490Z,95.45
2017-09-25T21:31:18.349Z,95.53
2017-09-25T21:33:46.224Z,95.60
2017-09-25T21:36:14.071Z,95.70
2017-09-25T21:38:41.954Z,95.78
2017-09-25T21:41:09.890Z,95.79
2017-09-25T21:43:37.748Z,95.81
2017-09-25T21:46:05.624Z,95.84
2017-09-25T21:48:33.445Z,95.85
2017-09-25T21:51:01.328Z,95.79
2017-09-25T21:53:29.135Z,95.73
2017-09-25T21:55:57.038Z,95.68
2017-09-25T21:58:24.771Z,95.68
2017-09-25T22:00:52.662Z,95.65
2017-09-25T22:03:20.523Z,95.57
2017-09-25T22:05:48.411Z,95.47
2017-09-25T22:08:16.234Z,95.39
2017-09-25T22:10:44.093Z,95.34
2017-09-25T22:13:11.924Z,95.29
2017-09-25T22:15:39.794Z,95.30
2017-09-25T22:18:07.540Z,95.31
2017-09-25T22:20:35.425Z,95.34
2017-09-25T22:23:03.251Z,95.34
2017-09-25T22:25:31.125Z,95.35
2017-09-25T22:27:58.945Z,95.37
2017-09-25T22:30:26.843Z,95.37
2017-09-25T22:32:54.790Z,95.35
2017-09-25T22:35:22.701Z,95.35
2017-09-25T22:37:50.696Z,95.36
2017-09-25T22:40:18.638Z,95.39
2017-09-25T22:42:46.591Z,95.40
2017-09-25T22:45:14.529Z,95.52
2017-09-25T22:47:42.366Z,95.55
2017-09-25T22:50:10.272Z,95.49
2017-09-25T22:52:38.181Z,95.45
2017-09-25T22:55:06.102Z,95.41
2017-09-25T22:57:33.979Z,95.40
2017-09-25T23:00:01.918Z,95.39
2017-09-25T23:02:29.810Z,95.40
2017-09-25T23:08:05.846Z,95.56
2017-09-25T23:10:33.762Z,95.56
2017-09-25T23:13:01.654Z,95.56
2017-09-25T23:15:29.522Z,95.59
2017-09-25T23:17:57.413Z,95.68
2017-09-25T23:20:25.265Z,95.70
2017-09-25T23:22:53.107Z,95.72
2017-09-25T23:25:21.054Z,95.76
2017-09-25T23:27:48.927Z,95.82
2017-09-25T23:30:28.453Z,95.86
2017-09-25T23:32:56.322Z,95.97
2017-09-25T23:35:24.206Z,96.05
2017-09-25T23:37:52.019Z,96.06
2017-09-25T23:40:19.874Z,96.06
2017-09-25T23:42:47.755Z,96.11
2017-09-25T23:45:15.613Z,96.12
2017-09-25T23:47:43.435Z,96.09
2017-09-25T23:50:11.355Z,96.11
2017-09-25T23:52:39.181Z,96.07
2017-09-25T23:55:07.077Z,96.05
2017-09-25T23:57:34.898Z,96.04
